sensor_id;sensor_type;location;lat;lon;timestamp;P1;durP1;ratioP1;P2;durP2;ratioP2
10041;SDS011;5061;49.068;12.058;2024-03-07T00:01:17;20.90;;;11.80;;
10041;SDS011;5061;49.068;12.058;2024-03-07T00:04:37;28.20;;;14.77;;
10041;SDS011;5061;49.068;12.058;2024-03-07T00:07:58;24.57;;;14.13;;
10041;SDS011;5061;49.068;12.058;2024-03-07T00:11:19;22.27;;;12.60;;
10041;SDS011;5061;49.068;12.058;2024-03-07T00:14:39;26.43;;;13.90;;
10041;SDS011;5061;49.068;12.058;2024-03-07T00:18:00;22.03;;;12.07;;
10041;SDS011;5061;49.068;12.058;2024-03-07T00:21:21;20.77;;;11.83;;
10041;SDS011;5061;49.068;12.058;2024-03-07T00:24:42;23.27;;;11.27;;
10041;SDS011;5061;49.068;12.058;2024-03-07T00:28:03;27.73;;;14.33;;
10041;SDS011;5061;49.068;12.058;2024-03-07T00:31:24;25.40;;;15.00;;
10041;SDS011;5061;49.068;12.058;2024-03-07T00:34:44;25.17;;;13.83;;
10041;SDS011;5061;49.068;12.058;2024-03-07T00:38:05;24.53;;;14.23;;
10041;SDS011;5061;49.068;12.058;2024-03-07T00:41:25;21.13;;;12.67;;
10041;SDS011;5061;49.068;12.058;2024-03-07T00:44:46;23.03;;;14.23;;
10041;SDS011;5061;49.068;12.058;2024-03-07T00:48:07;24.17;;;14.00;;
10041;SDS011;5061;49.068;12.058;2024-03-07T00:51:28;25.57;;;13.33;;
10041;SDS011;5061;49.068;12.058;2024-03-07T00:54:48;25.70;;;14.27;;
10041;SDS011;5061;49.068;12.058;2024-03-07T00:58:09;29.20;;;14.13;;
10041;SDS011;5061;49.068;12.058;2024-03-07T01:01:30;23.90;;;13.93;;
10041;SDS011;5061;49.068;12.058;2024-03-07T01:04:52;23.30;;;13.47;;
10041;SDS011;5061;49.068;12.058;2024-03-07T01:08:14;22.73;;;13.23;;
10041;SDS011;5061;49.068;12.058;2024-03-07T01:11:35;24.50;;;14.40;;
10041;SDS011;5061;49.068;12.058;2024-03-07T01:14:56;22.30;;;13.47;;
10041;SDS011;5061;49.068;12.058;2024-03-07T01:18:17;29.07;;;16.60;;
10041;SDS011;5061;49.068;12.058;2024-03-07T01:21:38;26.07;;;16.37;;
10041;SDS011;5061;49.068;12.058;2024-03-07T01:24:59;32.27;;;18.27;;
10041;SDS011;5061;49.068;12.058;2024-03-07T01:28:19;28.67;;;16.00;;
10041;SDS011;5061;49.068;12.058;2024-03-07T01:31:42;29.17;;;15.03;;
10041;SDS011;5061;49.068;12.058;2024-03-07T01:35:03;32.70;;;16.50;;
10041;SDS011;5061;49.068;12.058;2024-03-07T01:38:26;26.20;;;16.17;;
10041;SDS011;5061;49.068;12.058;2024-03-07T01:41:47;26.20;;;14.17;;
10041;SDS011;5061;49.068;12.058;2024-03-07T01:45:08;30.50;;;15.23;;
10041;SDS011;5061;49.068;12.058;2024-03-07T01:48:29;31.83;;;17.03;;
10041;SDS011;5061;49.068;12.058;2024-03-07T01:51:51;28.53;;;16.70;;
10041;SDS011;5061;49.068;12.058;2024-03-07T01:55:12;35.17;;;18.87;;
10041;SDS011;5061;49.068;12.058;2024-03-07T01:58:33;34.23;;;18.80;;
10041;SDS011;5061;49.068;12.058;2024-03-07T02:01:56;32.63;;;18.03;;
10041;SDS011;5061;49.068;12.058;2024-03-07T02:05:17;30.83;;;17.73;;
10041;SDS011;5061;49.068;12.058;2024-03-07T02:08:38;31.23;;;16.00;;
10041;SDS011;5061;49.068;12.058;2024-03-07T02:11:59;24.90;;;14.87;;
10041;SDS011;5061;49.068;12.058;2024-03-07T02:15:19;35.37;;;18.37;;
10041;SDS011;5061;49.068;12.058;2024-03-07T02:18:40;33.30;;;18.70;;
10041;SDS011;5061;49.068;12.058;2024-03-07T02:22:01;31.87;;;17.43;;
10041;SDS011;5061;49.068;12.058;2024-03-07T02:25:21;28.90;;;17.23;;
10041;SDS011;5061;49.068;12.058;2024-03-07T02:28:42;29.43;;;16.73;;
10041;SDS011;5061;49.068;12.058;2024-03-07T02:32:03;31.37;;;17.73;;
10041;SDS011;5061;49.068;12.058;2024-03-07T02:35:24;28.73;;;17.10;;
10041;SDS011;5061;49.068;12.058;2024-03-07T02:38:45;34.97;;;18.70;;
10041;SDS011;5061;49.068;12.058;2024-03-07T02:42:05;31.90;;;17.90;;
10041;SDS011;5061;49.068;12.058;2024-03-07T02:45:26;31.43;;;16.80;;
10041;SDS011;5061;49.068;12.058;2024-03-07T02:48:46;38.63;;;20.43;;
10041;SDS011;5061;49.068;12.058;2024-03-07T02:52:07;34.23;;;18.83;;
10041;SDS011;5061;49.068;12.058;2024-03-07T02:55:28;31.57;;;17.83;;
10041;SDS011;5061;49.068;12.058;2024-03-07T02:58:48;36.17;;;19.23;;
10041;SDS011;5061;49.068;12.058;2024-03-07T03:02:09;33.30;;;18.67;;
10041;SDS011;5061;49.068;12.058;2024-03-07T03:05:30;32.37;;;19.73;;
10041;SDS011;5061;49.068;12.058;2024-03-07T03:08:50;35.30;;;18.90;;
10041;SDS011;5061;49.068;12.058;2024-03-07T03:12:14;31.80;;;17.40;;
10041;SDS011;5061;49.068;12.058;2024-03-07T03:15:35;38.00;;;18.60;;
10041;SDS011;5061;49.068;12.058;2024-03-07T03:18:57;33.00;;;18.10;;
10041;SDS011;5061;49.068;12.058;2024-03-07T03:22:18;35.03;;;19.13;;
10041;SDS011;5061;49.068;12.058;2024-03-07T03:25:39;40.30;;;22.27;;
10041;SDS011;5061;49.068;12.058;2024-03-07T03:29:00;34.20;;;19.97;;
10041;SDS011;5061;49.068;12.058;2024-03-07T03:32:20;38.13;;;20.57;;
10041;SDS011;5061;49.068;12.058;2024-03-07T03:35:41;36.13;;;19.33;;
10041;SDS011;5061;49.068;12.058;2024-03-07T03:39:02;38.77;;;20.60;;
10041;SDS011;5061;49.068;12.058;2024-03-07T03:42:22;34.87;;;19.40;;
10041;SDS011;5061;49.068;12.058;2024-03-07T03:45:43;37.87;;;21.03;;
10041;SDS011;5061;49.068;12.058;2024-03-07T03:49:03;32.23;;;18.80;;
10041;SDS011;5061;49.068;12.058;2024-03-07T03:52:26;37.33;;;20.80;;
10041;SDS011;5061;49.068;12.058;2024-03-07T03:55:49;34.23;;;18.33;;
10041;SDS011;5061;49.068;12.058;2024-03-07T03:59:09;36.53;;;16.93;;
10041;SDS011;5061;49.068;12.058;2024-03-07T04:02:30;33.60;;;17.50;;
10041;SDS011;5061;49.068;12.058;2024-03-07T04:05:50;32.87;;;17.00;;
10041;SDS011;5061;49.068;12.058;2024-03-07T04:09:11;32.57;;;18.10;;
10041;SDS011;5061;49.068;12.058;2024-03-07T04:12:32;29.07;;;17.00;;
10041;SDS011;5061;49.068;12.058;2024-03-07T04:15:53;27.00;;;15.47;;
10041;SDS011;5061;49.068;12.058;2024-03-07T04:19:14;31.00;;;17.70;;
10041;SDS011;5061;49.068;12.058;2024-03-07T04:22:35;29.17;;;17.23;;
10041;SDS011;5061;49.068;12.058;2024-03-07T04:25:59;29.53;;;17.40;;
10041;SDS011;5061;49.068;12.058;2024-03-07T04:29:19;33.30;;;17.63;;
10041;SDS011;5061;49.068;12.058;2024-03-07T04:32:40;33.83;;;18.80;;
10041;SDS011;5061;49.068;12.058;2024-03-07T04:36:02;28.63;;;16.33;;
10041;SDS011;5061;49.068;12.058;2024-03-07T04:39:22;31.70;;;17.30;;
10041;SDS011;5061;49.068;12.058;2024-03-07T04:42:52;32.73;;;18.27;;
10041;SDS011;5061;49.068;12.058;2024-03-07T04:46:13;32.53;;;17.77;;
10041;SDS011;5061;49.068;12.058;2024-03-07T04:49:33;37.00;;;19.10;;
10041;SDS011;5061;49.068;12.058;2024-03-07T04:52:54;37.43;;;19.40;;
10041;SDS011;5061;49.068;12.058;2024-03-07T04:56:15;34.80;;;19.20;;
10041;SDS011;5061;49.068;12.058;2024-03-07T04:59:36;37.87;;;18.73;;
10041;SDS011;5061;49.068;12.058;2024-03-07T05:02:56;35.80;;;17.90;;
10041;SDS011;5061;49.068;12.058;2024-03-07T05:06:17;34.27;;;18.70;;
10041;SDS011;5061;49.068;12.058;2024-03-07T05:09:38;33.27;;;18.00;;
10041;SDS011;5061;49.068;12.058;2024-03-07T05:12:59;34.90;;;17.60;;
10041;SDS011;5061;49.068;12.058;2024-03-07T05:16:19;35.30;;;16.50;;
10041;SDS011;5061;49.068;12.058;2024-03-07T05:19:40;34.40;;;17.20;;
10041;SDS011;5061;49.068;12.058;2024-03-07T05:23:00;32.27;;;17.03;;
10041;SDS011;5061;49.068;12.058;2024-03-07T05:26:24;30.10;;;15.73;;
10041;SDS011;5061;49.068;12.058;2024-03-07T05:29:46;27.70;;;15.10;;
10041;SDS011;5061;49.068;12.058;2024-03-07T05:33:07;25.37;;;14.80;;
10041;SDS011;5061;49.068;12.058;2024-03-07T05:36:27;27.10;;;15.73;;
10041;SDS011;5061;49.068;12.058;2024-03-07T05:39:48;30.90;;;15.77;;
10041;SDS011;5061;49.068;12.058;2024-03-07T05:43:12;29.37;;;16.13;;
10041;SDS011;5061;49.068;12.058;2024-03-07T05:46:33;30.63;;;15.97;;
10041;SDS011;5061;49.068;12.058;2024-03-07T05:49:55;30.33;;;15.87;;
10041;SDS011;5061;49.068;12.058;2024-03-07T05:53:15;28.50;;;15.17;;
10041;SDS011;5061;49.068;12.058;2024-03-07T05:56:38;27.00;;;14.30;;
10041;SDS011;5061;49.068;12.058;2024-03-07T05:59:59;29.00;;;15.77;;
10041;SDS011;5061;49.068;12.058;2024-03-07T06:03:20;28.63;;;16.10;;
10041;SDS011;5061;49.068;12.058;2024-03-07T06:06:40;27.80;;;15.50;;
10041;SDS011;5061;49.068;12.058;2024-03-07T06:10:01;25.37;;;14.33;;
10041;SDS011;5061;49.068;12.058;2024-03-07T06:13:23;25.50;;;14.30;;
10041;SDS011;5061;49.068;12.058;2024-03-07T06:16:44;30.67;;;16.47;;
10041;SDS011;5061;49.068;12.058;2024-03-07T06:20:05;32.17;;;16.53;;
10041;SDS011;5061;49.068;12.058;2024-03-07T06:23:37;26.27;;;14.20;;
10041;SDS011;5061;49.068;12.058;2024-03-07T06:26:57;21.17;;;12.00;;
10041;SDS011;5061;49.068;12.058;2024-03-07T06:30:23;27.93;;;14.40;;
10041;SDS011;5061;49.068;12.058;2024-03-07T06:33:44;29.17;;;16.13;;
10041;SDS011;5061;49.068;12.058;2024-03-07T06:37:04;27.20;;;15.87;;
10041;SDS011;5061;49.068;12.058;2024-03-07T06:40:25;26.80;;;14.67;;
10041;SDS011;5061;49.068;12.058;2024-03-07T06:43:46;23.53;;;13.53;;
10041;SDS011;5061;49.068;12.058;2024-03-07T06:47:07;27.83;;;14.00;;
10041;SDS011;5061;49.068;12.058;2024-03-07T06:50:28;24.07;;;11.83;;
10041;SDS011;5061;49.068;12.058;2024-03-07T06:53:49;22.07;;;11.93;;
10041;SDS011;5061;49.068;12.058;2024-03-07T06:57:10;26.17;;;13.73;;
10041;SDS011;5061;49.068;12.058;2024-03-07T07:00:30;24.97;;;13.50;;
10041;SDS011;5061;49.068;12.058;2024-03-07T07:03:57;22.33;;;12.03;;
10041;SDS011;5061;49.068;12.058;2024-03-07T07:07:18;23.40;;;14.00;;
10041;SDS011;5061;49.068;12.058;2024-03-07T07:10:40;21.10;;;12.53;;
10041;SDS011;5061;49.068;12.058;2024-03-07T07:14:01;20.67;;;12.10;;
10041;SDS011;5061;49.068;12.058;2024-03-07T07:17:25;22.63;;;13.20;;
10041;SDS011;5061;49.068;12.058;2024-03-07T07:20:51;24.70;;;12.43;;
10041;SDS011;5061;49.068;12.058;2024-03-07T07:24:12;24.43;;;13.40;;
10041;SDS011;5061;49.068;12.058;2024-03-07T07:27:32;19.43;;;11.27;;
10041;SDS011;5061;49.068;12.058;2024-03-07T07:30:53;21.07;;;11.23;;
10041;SDS011;5061;49.068;12.058;2024-03-07T07:34:14;18.20;;;10.47;;
10041;SDS011;5061;49.068;12.058;2024-03-07T07:37:35;22.00;;;11.50;;
10041;SDS011;5061;49.068;12.058;2024-03-07T07:40:56;24.20;;;11.80;;
10041;SDS011;5061;49.068;12.058;2024-03-07T07:44:17;24.00;;;13.20;;
10041;SDS011;5061;49.068;12.058;2024-03-07T07:47:39;22.53;;;12.40;;
10041;SDS011;5061;49.068;12.058;2024-03-07T07:51:01;20.27;;;10.90;;
10041;SDS011;5061;49.068;12.058;2024-03-07T07:54:25;22.47;;;11.27;;
10041;SDS011;5061;49.068;12.058;2024-03-07T07:57:46;17.60;;;9.70;;
10041;SDS011;5061;49.068;12.058;2024-03-07T08:01:08;19.60;;;10.23;;
10041;SDS011;5061;49.068;12.058;2024-03-07T08:04:29;19.70;;;11.30;;
10041;SDS011;5061;49.068;12.058;2024-03-07T08:07:51;16.03;;;8.97;;
10041;SDS011;5061;49.068;12.058;2024-03-07T08:11:15;17.60;;;10.13;;
10041;SDS011;5061;49.068;12.058;2024-03-07T08:14:36;16.93;;;8.57;;
10041;SDS011;5061;49.068;12.058;2024-03-07T08:17:56;17.40;;;8.83;;
10041;SDS011;5061;49.068;12.058;2024-03-07T08:21:18;22.30;;;11.87;;
10041;SDS011;5061;49.068;12.058;2024-03-07T08:24:38;24.23;;;11.77;;
10041;SDS011;5061;49.068;12.058;2024-03-07T08:27:59;22.53;;;11.10;;
10041;SDS011;5061;49.068;12.058;2024-03-07T08:31:21;19.73;;;9.90;;
10041;SDS011;5061;49.068;12.058;2024-03-07T08:34:41;26.50;;;12.00;;
10041;SDS011;5061;49.068;12.058;2024-03-07T08:38:02;21.70;;;11.17;;
10041;SDS011;5061;49.068;12.058;2024-03-07T08:41:23;24.60;;;10.53;;
10041;SDS011;5061;49.068;12.058;2024-03-07T08:44:43;23.40;;;11.17;;
10041;SDS011;5061;49.068;12.058;2024-03-07T08:48:04;20.60;;;10.07;;
10041;SDS011;5061;49.068;12.058;2024-03-07T08:51:27;24.53;;;11.33;;
10041;SDS011;5061;49.068;12.058;2024-03-07T08:54:47;18.33;;;9.80;;
10041;SDS011;5061;49.068;12.058;2024-03-07T08:58:08;21.67;;;10.70;;
10041;SDS011;5061;49.068;12.058;2024-03-07T09:01:29;18.50;;;10.87;;
10041;SDS011;5061;49.068;12.058;2024-03-07T09:04:49;17.70;;;9.63;;
10041;SDS011;5061;49.068;12.058;2024-03-07T09:08:10;22.53;;;11.27;;
10041;SDS011;5061;49.068;12.058;2024-03-07T09:11:31;22.10;;;12.23;;
10041;SDS011;5061;49.068;12.058;2024-03-07T09:14:52;22.63;;;10.40;;
10041;SDS011;5061;49.068;12.058;2024-03-07T09:18:13;22.13;;;11.57;;
10041;SDS011;5061;49.068;12.058;2024-03-07T09:21:33;20.30;;;12.20;;
10041;SDS011;5061;49.068;12.058;2024-03-07T09:24:54;22.33;;;12.63;;
10041;SDS011;5061;49.068;12.058;2024-03-07T09:28:14;22.30;;;12.00;;
10041;SDS011;5061;49.068;12.058;2024-03-07T09:31:35;26.50;;;13.17;;
10041;SDS011;5061;49.068;12.058;2024-03-07T09:34:56;28.67;;;13.10;;
10041;SDS011;5061;49.068;12.058;2024-03-07T09:38:17;26.17;;;13.50;;
10041;SDS011;5061;49.068;12.058;2024-03-07T09:41:38;21.70;;;11.53;;
10041;SDS011;5061;49.068;12.058;2024-03-07T09:45:02;20.40;;;11.00;;
10041;SDS011;5061;49.068;12.058;2024-03-07T09:48:23;17.90;;;9.87;;
10041;SDS011;5061;49.068;12.058;2024-03-07T09:51:48;21.50;;;10.50;;
10041;SDS011;5061;49.068;12.058;2024-03-07T09:55:15;19.50;;;9.97;;
10041;SDS011;5061;49.068;12.058;2024-03-07T09:58:37;21.63;;;10.23;;
10041;SDS011;5061;49.068;12.058;2024-03-07T10:02:00;21.30;;;12.07;;
10041;SDS011;5061;49.068;12.058;2024-03-07T10:05:26;23.20;;;11.17;;
10041;SDS011;5061;49.068;12.058;2024-03-07T10:08:47;18.90;;;10.03;;
10041;SDS011;5061;49.068;12.058;2024-03-07T10:12:09;21.90;;;10.97;;
10041;SDS011;5061;49.068;12.058;2024-03-07T10:15:32;22.50;;;11.00;;
10041;SDS011;5061;49.068;12.058;2024-03-07T10:18:54;22.23;;;11.37;;
10041;SDS011;5061;49.068;12.058;2024-03-07T10:22:14;18.07;;;10.27;;
10041;SDS011;5061;49.068;12.058;2024-03-07T10:25:35;16.20;;;9.43;;
10041;SDS011;5061;49.068;12.058;2024-03-07T10:28:57;28.03;;;10.53;;
10041;SDS011;5061;49.068;12.058;2024-03-07T10:32:22;16.37;;;8.47;;
10041;SDS011;5061;49.068;12.058;2024-03-07T10:35:46;17.03;;;9.50;;
10041;SDS011;5061;49.068;12.058;2024-03-07T10:39:09;18.93;;;10.20;;
10041;SDS011;5061;49.068;12.058;2024-03-07T10:42:36;16.43;;;10.10;;
10041;SDS011;5061;49.068;12.058;2024-03-07T10:45:58;17.97;;;10.20;;
10041;SDS011;5061;49.068;12.058;2024-03-07T10:49:21;19.13;;;10.90;;
10041;SDS011;5061;49.068;12.058;2024-03-07T10:52:49;20.77;;;10.57;;
10041;SDS011;5061;49.068;12.058;2024-03-07T10:56:35;20.90;;;10.60;;
10041;SDS011;5061;49.068;12.058;2024-03-07T11:00:08;21.07;;;10.57;;
10041;SDS011;5061;49.068;12.058;2024-03-07T11:03:48;19.27;;;8.80;;
10041;SDS011;5061;49.068;12.058;2024-03-07T11:07:12;17.63;;;10.33;;
10041;SDS011;5061;49.068;12.058;2024-03-07T11:10:33;16.93;;;9.10;;
10041;SDS011;5061;49.068;12.058;2024-03-07T11:13:55;19.43;;;9.57;;
10041;SDS011;5061;49.068;12.058;2024-03-07T11:17:19;20.40;;;10.13;;
10041;SDS011;5061;49.068;12.058;2024-03-07T11:20:42;17.80;;;9.50;;
10041;SDS011;5061;49.068;12.058;2024-03-07T11:24:06;14.70;;;8.00;;
10041;SDS011;5061;49.068;12.058;2024-03-07T11:27:26;15.60;;;8.87;;
10041;SDS011;5061;49.068;12.058;2024-03-07T11:30:48;19.60;;;9.60;;
10041;SDS011;5061;49.068;12.058;2024-03-07T11:34:12;18.10;;;9.97;;
10041;SDS011;5061;49.068;12.058;2024-03-07T11:37:40;16.37;;;8.20;;
10041;SDS011;5061;49.068;12.058;2024-03-07T11:41:08;17.23;;;10.07;;
10041;SDS011;5061;49.068;12.058;2024-03-07T11:44:33;17.90;;;9.50;;
10041;SDS011;5061;49.068;12.058;2024-03-07T11:48:00;14.03;;;8.80;;
10041;SDS011;5061;49.068;12.058;2024-03-07T11:51:26;15.63;;;8.73;;
10041;SDS011;5061;49.068;12.058;2024-03-07T11:54:48;15.27;;;8.60;;
10041;SDS011;5061;49.068;12.058;2024-03-07T11:58:10;16.43;;;9.80;;
10041;SDS011;5061;49.068;12.058;2024-03-07T12:01:36;18.73;;;9.70;;
10041;SDS011;5061;49.068;12.058;2024-03-07T12:04:56;14.40;;;8.63;;
10041;SDS011;5061;49.068;12.058;2024-03-07T12:08:18;14.40;;;7.90;;
10041;SDS011;5061;49.068;12.058;2024-03-07T12:11:42;14.60;;;9.27;;
10041;SDS011;5061;49.068;12.058;2024-03-07T12:15:04;14.67;;;8.50;;
10041;SDS011;5061;49.068;12.058;2024-03-07T12:18:32;14.47;;;8.23;;
10041;SDS011;5061;49.068;12.058;2024-03-07T12:21:56;17.03;;;10.17;;
10041;SDS011;5061;49.068;12.058;2024-03-07T12:25:19;13.83;;;8.83;;
10041;SDS011;5061;49.068;12.058;2024-03-07T12:28:44;13.13;;;8.40;;
10041;SDS011;5061;49.068;12.058;2024-03-07T12:32:06;16.30;;;9.00;;
10041;SDS011;5061;49.068;12.058;2024-03-07T12:35:36;13.40;;;8.50;;
10041;SDS011;5061;49.068;12.058;2024-03-07T12:38:56;14.13;;;8.57;;
10041;SDS011;5061;49.068;12.058;2024-03-07T12:42:17;15.40;;;9.37;;
10041;SDS011;5061;49.068;12.058;2024-03-07T12:45:42;15.10;;;8.27;;
10041;SDS011;5061;49.068;12.058;2024-03-07T12:49:04;20.60;;;9.87;;
10041;SDS011;5061;49.068;12.058;2024-03-07T12:52:24;14.83;;;9.33;;
10041;SDS011;5061;49.068;12.058;2024-03-07T12:55:45;17.10;;;10.37;;
10041;SDS011;5061;49.068;12.058;2024-03-07T12:59:06;14.40;;;8.90;;
10041;SDS011;5061;49.068;12.058;2024-03-07T13:02:29;11.00;;;7.30;;
10041;SDS011;5061;49.068;12.058;2024-03-07T13:05:49;15.50;;;8.40;;
10041;SDS011;5061;49.068;12.058;2024-03-07T13:09:10;12.60;;;7.40;;
10041;SDS011;5061;49.068;12.058;2024-03-07T13:12:31;13.93;;;8.00;;
10041;SDS011;5061;49.068;12.058;2024-03-07T13:15:51;14.07;;;8.97;;
10041;SDS011;5061;49.068;12.058;2024-03-07T13:19:14;15.03;;;8.53;;
10041;SDS011;5061;49.068;12.058;2024-03-07T13:22:41;14.47;;;8.80;;
10041;SDS011;5061;49.068;12.058;2024-03-07T13:26:08;14.67;;;9.17;;
10041;SDS011;5061;49.068;12.058;2024-03-07T13:29:36;13.40;;;7.77;;
10041;SDS011;5061;49.068;12.058;2024-03-07T13:32:57;12.50;;;8.17;;
10041;SDS011;5061;49.068;12.058;2024-03-07T13:36:19;13.83;;;8.77;;
10041;SDS011;5061;49.068;12.058;2024-03-07T13:39:42;14.33;;;8.43;;
10041;SDS011;5061;49.068;12.058;2024-03-07T13:43:04;15.70;;;8.63;;
10041;SDS011;5061;49.068;12.058;2024-03-07T13:46:25;13.60;;;7.77;;
10041;SDS011;5061;49.068;12.058;2024-03-07T13:49:45;14.90;;;8.13;;
10041;SDS011;5061;49.068;12.058;2024-03-07T13:53:06;15.13;;;8.90;;
10041;SDS011;5061;49.068;12.058;2024-03-07T13:56:34;20.53;;;8.40;;
10041;SDS011;5061;49.068;12.058;2024-03-07T14:00:15;11.23;;;7.47;;
10041;SDS011;5061;49.068;12.058;2024-03-07T14:11:48;15.10;;;8.77;;
10041;SDS011;5061;49.068;12.058;2024-03-07T14:30:40;13.83;;;8.40;;
10041;SDS011;5061;49.068;12.058;2024-03-07T14:41:44;13.17;;;8.87;;
10041;SDS011;5061;49.068;12.058;2024-03-07T14:45:09;16.20;;;9.67;;
10041;SDS011;5061;49.068;12.058;2024-03-07T14:48:34;15.73;;;9.77;;
10041;SDS011;5061;49.068;12.058;2024-03-07T14:51:55;17.93;;;9.40;;
10041;SDS011;5061;49.068;12.058;2024-03-07T14:55:16;15.63;;;9.40;;
10041;SDS011;5061;49.068;12.058;2024-03-07T14:58:39;17.83;;;8.73;;
10041;SDS011;5061;49.068;12.058;2024-03-07T15:01:59;15.03;;;9.27;;
10041;SDS011;5061;49.068;12.058;2024-03-07T15:05:23;18.43;;;9.77;;
10041;SDS011;5061;49.068;12.058;2024-03-07T15:08:44;22.57;;;9.57;;
10041;SDS011;5061;49.068;12.058;2024-03-07T15:12:05;16.27;;;9.10;;
10041;SDS011;5061;49.068;12.058;2024-03-07T15:15:27;12.10;;;7.90;;
10041;SDS011;5061;49.068;12.058;2024-03-07T15:18:51;16.90;;;9.17;;
10041;SDS011;5061;49.068;12.058;2024-03-07T15:22:11;14.80;;;8.40;;
10041;SDS011;5061;49.068;12.058;2024-03-07T15:25:33;15.20;;;9.63;;
10041;SDS011;5061;49.068;12.058;2024-03-07T15:28:54;17.00;;;9.27;;
10041;SDS011;5061;49.068;12.058;2024-03-07T15:32:14;16.43;;;9.43;;
10041;SDS011;5061;49.068;12.058;2024-03-07T15:35:37;18.20;;;9.97;;
10041;SDS011;5061;49.068;12.058;2024-03-07T15:38:57;17.20;;;9.90;;
10041;SDS011;5061;49.068;12.058;2024-03-07T15:42:18;14.50;;;9.67;;
10041;SDS011;5061;49.068;12.058;2024-03-07T15:45:39;16.03;;;9.60;;
10041;SDS011;5061;49.068;12.058;2024-03-07T15:49:01;18.20;;;9.10;;
10041;SDS011;5061;49.068;12.058;2024-03-07T15:52:22;14.93;;;9.30;;
10041;SDS011;5061;49.068;12.058;2024-03-07T15:55:43;21.20;;;11.17;;
10041;SDS011;5061;49.068;12.058;2024-03-07T15:59:04;22.87;;;11.73;;
10041;SDS011;5061;49.068;12.058;2024-03-07T16:02:24;16.90;;;9.90;;
10041;SDS011;5061;49.068;12.058;2024-03-07T16:05:45;19.47;;;11.00;;
10041;SDS011;5061;49.068;12.058;2024-03-07T16:09:05;19.90;;;10.50;;
10041;SDS011;5061;49.068;12.058;2024-03-07T16:12:26;16.93;;;9.10;;
10041;SDS011;5061;49.068;12.058;2024-03-07T16:15:49;15.10;;;8.87;;
10041;SDS011;5061;49.068;12.058;2024-03-07T16:19:10;16.70;;;8.97;;
10041;SDS011;5061;49.068;12.058;2024-03-07T16:22:31;12.33;;;8.17;;
10041;SDS011;5061;49.068;12.058;2024-03-07T16:25:51;14.20;;;7.80;;
10041;SDS011;5061;49.068;12.058;2024-03-07T16:29:12;17.30;;;9.10;;
10041;SDS011;5061;49.068;12.058;2024-03-07T16:32:33;13.77;;;8.43;;
10041;SDS011;5061;49.068;12.058;2024-03-07T16:35:55;13.50;;;7.80;;
10041;SDS011;5061;49.068;12.058;2024-03-07T16:39:20;18.30;;;9.93;;
10041;SDS011;5061;49.068;12.058;2024-03-07T16:42:49;19.83;;;9.87;;
10041;SDS011;5061;49.068;12.058;2024-03-07T16:46:11;20.20;;;9.67;;
10041;SDS011;5061;49.068;12.058;2024-03-07T16:49:31;15.23;;;8.67;;
10041;SDS011;5061;49.068;12.058;2024-03-07T16:52:52;14.50;;;8.50;;
10041;SDS011;5061;49.068;12.058;2024-03-07T16:56:14;13.00;;;7.90;;
10041;SDS011;5061;49.068;12.058;2024-03-07T16:59:38;17.03;;;9.77;;
10041;SDS011;5061;49.068;12.058;2024-03-07T17:02:59;13.80;;;8.27;;
10041;SDS011;5061;49.068;12.058;2024-03-07T17:06:20;16.90;;;8.97;;
10041;SDS011;5061;49.068;12.058;2024-03-07T17:09:42;17.40;;;8.90;;
10041;SDS011;5061;49.068;12.058;2024-03-07T17:13:02;17.83;;;8.73;;
10041;SDS011;5061;49.068;12.058;2024-03-07T17:16:30;14.73;;;8.47;;
10041;SDS011;5061;49.068;12.058;2024-03-07T17:19:51;10.47;;;6.80;;
10041;SDS011;5061;49.068;12.058;2024-03-07T17:23:11;12.40;;;7.83;;
10041;SDS011;5061;49.068;12.058;2024-03-07T17:26:32;13.07;;;7.10;;
10041;SDS011;5061;49.068;12.058;2024-03-07T17:29:54;13.23;;;7.60;;
10041;SDS011;5061;49.068;12.058;2024-03-07T17:33:14;12.93;;;7.70;;
10041;SDS011;5061;49.068;12.058;2024-03-07T17:36:36;13.10;;;8.43;;
10041;SDS011;5061;49.068;12.058;2024-03-07T17:39:56;16.10;;;8.67;;
10041;SDS011;5061;49.068;12.058;2024-03-07T17:43:17;17.70;;;8.93;;
10041;SDS011;5061;49.068;12.058;2024-03-07T17:46:38;14.03;;;8.20;;
10041;SDS011;5061;49.068;12.058;2024-03-07T17:49:59;16.47;;;8.50;;
10041;SDS011;5061;49.068;12.058;2024-03-07T17:53:21;12.27;;;8.60;;
10041;SDS011;5061;49.068;12.058;2024-03-07T17:56:45;15.50;;;8.70;;
10041;SDS011;5061;49.068;12.058;2024-03-07T18:00:06;16.83;;;9.20;;
10041;SDS011;5061;49.068;12.058;2024-03-07T18:03:29;18.77;;;7.97;;
10041;SDS011;5061;49.068;12.058;2024-03-07T18:06:49;13.97;;;8.50;;
10041;SDS011;5061;49.068;12.058;2024-03-07T18:10:12;12.93;;;7.47;;
10041;SDS011;5061;49.068;12.058;2024-03-07T18:13:42;15.17;;;8.00;;
10041;SDS011;5061;49.068;12.058;2024-03-07T18:17:03;12.97;;;7.87;;
10041;SDS011;5061;49.068;12.058;2024-03-07T18:20:27;16.27;;;7.60;;
10041;SDS011;5061;49.068;12.058;2024-03-07T18:23:48;19.90;;;9.60;;
10041;SDS011;5061;49.068;12.058;2024-03-07T18:27:09;22.13;;;9.80;;
10041;SDS011;5061;49.068;12.058;2024-03-07T18:30:33;22.30;;;9.17;;
10041;SDS011;5061;49.068;12.058;2024-03-07T18:33:53;16.47;;;8.47;;
10041;SDS011;5061;49.068;12.058;2024-03-07T18:37:14;17.73;;;9.47;;
10041;SDS011;5061;49.068;12.058;2024-03-07T18:40:35;19.40;;;9.80;;
10041;SDS011;5061;49.068;12.058;2024-03-07T18:43:55;19.60;;;10.00;;
10041;SDS011;5061;49.068;12.058;2024-03-07T18:47:16;17.23;;;9.27;;
10041;SDS011;5061;49.068;12.058;2024-03-07T18:50:39;12.07;;;7.23;;
10041;SDS011;5061;49.068;12.058;2024-03-07T18:54:05;15.70;;;8.83;;
10041;SDS011;5061;49.068;12.058;2024-03-07T18:57:29;15.37;;;8.30;;
10041;SDS011;5061;49.068;12.058;2024-03-07T19:00:49;20.07;;;9.87;;
10041;SDS011;5061;49.068;12.058;2024-03-07T19:04:10;18.87;;;9.87;;
10041;SDS011;5061;49.068;12.058;2024-03-07T19:07:31;14.70;;;8.60;;
10041;SDS011;5061;49.068;12.058;2024-03-07T19:10:54;15.10;;;9.10;;
10041;SDS011;5061;49.068;12.058;2024-03-07T19:14:17;14.57;;;8.30;;
10041;SDS011;5061;49.068;12.058;2024-03-07T19:17:38;16.67;;;8.47;;
10041;SDS011;5061;49.068;12.058;2024-03-07T19:20:59;14.57;;;7.63;;
10041;SDS011;5061;49.068;12.058;2024-03-07T19:24:29;14.23;;;8.30;;
10041;SDS011;5061;49.068;12.058;2024-03-07T19:27:50;19.80;;;9.40;;
10041;SDS011;5061;49.068;12.058;2024-03-07T19:31:10;16.37;;;9.33;;
10041;SDS011;5061;49.068;12.058;2024-03-07T19:34:34;14.03;;;9.27;;
10041;SDS011;5061;49.068;12.058;2024-03-07T19:37:54;15.80;;;8.97;;
10041;SDS011;5061;49.068;12.058;2024-03-07T19:41:15;13.93;;;8.63;;
10041;SDS011;5061;49.068;12.058;2024-03-07T19:44:40;13.10;;;7.03;;
10041;SDS011;5061;49.068;12.058;2024-03-07T19:48:04;11.50;;;6.57;;
10041;SDS011;5061;49.068;12.058;2024-03-07T19:51:25;16.33;;;8.70;;
10041;SDS011;5061;49.068;12.058;2024-03-07T19:54:46;12.23;;;7.50;;
10041;SDS011;5061;49.068;12.058;2024-03-07T19:58:06;12.73;;;8.20;;
10041;SDS011;5061;49.068;12.058;2024-03-07T20:01:27;15.70;;;7.80;;
10041;SDS011;5061;49.068;12.058;2024-03-07T20:04:48;13.97;;;7.90;;
10041;SDS011;5061;49.068;12.058;2024-03-07T20:08:10;15.83;;;8.83;;
10041;SDS011;5061;49.068;12.058;2024-03-07T20:11:34;11.70;;;8.03;;
10041;SDS011;5061;49.068;12.058;2024-03-07T20:14:56;15.50;;;7.47;;
10041;SDS011;5061;49.068;12.058;2024-03-07T20:18:17;17.10;;;7.50;;
10041;SDS011;5061;49.068;12.058;2024-03-07T20:21:37;12.00;;;6.97;;